Time;durP1;ratioP1;P1;durP2;ratioP2;P2;SDS_P1;SDS_P2;PMS_P1;PMS_P2;Temp;Humidity;BMP_temperature;BMP_pressure;BME280_temperature;BME280_humidity;BME280_pressure;Samples;Min_cycle;Max_cycle;Signal;HPM_P1;HPM_P2
2022/04/21 00:00:17;;;;;;;14.45;8.05;;;6.30;99.90;;;;;;5115029;28;20044;-26
2022/04/21 00:02:43;;;;;;;15.20;8.50;;;6.20;99.90;;;;;;5098094;28;20048;-26
2022/04/21 00:05:10;;;;;;;14.13;8.98;;;6.20;99.90;;;;;;5096885;28;20039;-26
2022/04/21 00:07:36;;;;;;;15.13;8.95;;;6.20;99.90;;;;;;5115496;28;20051;-26
2022/04/21 00:10:07;;;;;;;13.18;8.20;;;6.20;99.90;;;;;;5096735;28;20040;-27
2022/04/21 00:12:34;;;;;;;13.20;8.70;;;6.30;99.90;;;;;;5080926;28;20050;-27
2022/04/21 00:15:04;;;;;;;16.38;9.27;;;6.30;99.90;;;;;;5114752;28;20464;-27
2022/04/21 00:17:29;;;;;;;15.57;9.75;;;6.30;99.90;;;;;;5097904;28;20055;-26
2022/04/21 00:19:55;;;;;;;17.70;9.80;;;6.30;99.90;;;;;;5115629;28;20051;-26
2022/04/21 00:25:06;;;;;;;16.73;9.70;;;6.10;99.90;;;;;;5099903;28;20086;-27
2022/04/21 00:27:39;;;;;;;15.02;9.98;;;6.10;99.90;;;;;;5097441;28;20083;-26
2022/04/21 00:30:06;;;;;;;17.13;10.47;;;6.10;99.90;;;;;;5114655;28;20083;-27
2022/04/21 00:32:34;;;;;;;17.00;11.10;;;6.00;99.90;;;;;;5114606;28;20048;-26
2022/04/21 00:35:00;;;;;;;16.23;11.63;;;5.90;99.90;;;;;;5114116;28;20473;-26
2022/04/21 00:37:26;;;;;;;19.33;11.30;;;5.80;99.90;;;;;;5116573;27;20048;-26
2022/04/21 00:39:52;;;;;;;18.25;11.63;;;5.80;99.90;;;;;;5114652;28;20047;-27
2022/04/21 00:42:18;;;;;;;22.70;11.77;;;5.80;99.90;;;;;;5096984;28;20036;-26
2022/04/21 00:44:44;;;;;;;18.88;12.02;;;5.70;99.90;;;;;;5114622;28;20042;-27
2022/04/21 00:47:10;;;;;;;20.52;11.73;;;5.70;1.00;;;;;;5079914;28;20039;-26
2022/04/21 00:49:36;;;;;;;18.90;12.32;;;5.70;99.90;;;;;;5096131;28;20047;-26
2022/04/21 00:52:03;;;;;;;20.27;13.23;;;5.70;99.90;;;;;;5096381;28;20052;-26
2022/04/21 00:54:31;;;;;;;19.83;12.95;;;5.70;99.90;;;;;;5114734;28;20063;-26
2022/04/21 00:56:59;;;;;;;19.52;12.10;;;5.50;1.00;;;;;;5115581;27;20062;-26
2022/04/21 00:59:26;;;;;;;23.88;13.63;;;5.80;1.00;;;;;;5096205;28;20542;-26
2022/04/21 01:04:38;;;;;;;21.52;14.07;;;5.70;1.00;;;;;;5114767;28;20132;-27
2022/04/21 01:07:08;;;;;;;22.95;14.18;;;5.70;1.00;;;;;;5115352;28;20047;-27
2022/04/21 01:09:35;;;;;;;22.73;13.52;;;5.70;1.00;;;;;;5114104;28;20414;-26
2022/04/21 01:12:03;;;;;;;21.35;13.32;;;5.70;1.00;;;;;;5095981;28;20096;-26
2022/04/21 01:14:30;;;;;;;26.02;13.70;;;5.70;1.00;;;;;;5095871;28;20047;-27
2022/04/21 01:17:00;;;;;;;18.88;13.30;;;5.70;1.00;;;;;;5115050;28;20147;-26
2022/04/21 01:19:26;;;;;;;22.65;13.38;;;5.80;1.00;;;;;;5114133;28;20084;-27
2022/04/21 01:21:52;;;;;;;22.38;14.30;;;5.80;1.00;;;;;;5096827;28;20366;-27
2022/04/21 01:24:18;;;;;;;22.15;12.68;;;5.70;1.00;;;;;;5113944;28;20043;-26
2022/04/21 01:26:44;;;;;;;19.45;13.32;;;5.80;1.00;;;;;;5103605;28;20043;-26
2022/04/21 01:29:10;;;;;;;22.10;14.50;;;5.60;1.00;;;;;;5135673;28;20066;-27
2022/04/21 01:31:36;;;;;;;22.73;13.35;;;5.80;1.00;;;;;;5134422;28;20118;-26
2022/04/21 01:34:01;;;;;;;21.73;14.90;;;5.80;1.00;;;;;;5116517;28;20525;-27
2022/04/21 01:36:27;;;;;;;25.25;15.18;;;5.80;1.00;;;;;;5132252;28;20516;-26
2022/04/21 01:41:37;;;;;;;23.55;14.63;;;5.90;1.00;;;;;;5134303;28;20500;-26
2022/04/21 01:44:03;;;;;;;24.35;14.40;;;6.20;1.00;;;;;;5116502;28;20054;-27
2022/04/21 01:46:29;;;;;;;22.45;14.07;;;6.00;1.00;;;;;;5113514;28;20082;-27
2022/04/21 01:48:55;;;;;;;21.70;14.50;;;6.00;1.00;;;;;;5116005;28;20086;-26
2022/04/21 01:51:20;;;;;;;24.73;15.47;;;5.80;3.50;;;;;;5116423;28;20039;-26
2022/04/21 01:53:46;;;;;;;22.60;14.63;;;6.00;48.40;;;;;;5134182;28;20043;-27
2022/04/21 01:56:12;;;;;;;20.42;13.60;;;5.90;2.80;;;;;;5132818;27;20043;-26
2022/04/21 01:58:38;;;;;;;27.75;15.25;;;5.80;1.00;;;;;;5099268;28;20047;-26
2022/04/21 02:01:04;;;;;;;25.75;15.27;;;6.00;1.00;;;;;;5099313;28;20094;-26
2022/04/21 02:03:32;;;;;;;23.90;15.68;;;6.40;1.00;;;;;;5099397;28;20043;-26
2022/04/21 02:05:58;;;;;;;20.65;14.70;;;5.80;7.90;;;;;;5117821;27;20048;-27
2022/04/21 02:08:24;;;;;;;21.70;15.02;;;5.70;1.00;;;;;;5099047;28;20047;-26
2022/04/21 02:10:50;;;;;;;22.35;15.40;;;5.80;4.00;;;;;;5117279;28;20040;-26
2022/04/21 02:13:15;;;;;;;23.30;15.45;;;5.70;12.10;;;;;;5116844;28;20177;-27
2022/04/21 02:15:41;;;;;;;22.73;14.30;;;5.90;86.90;;;;;;5116912;28;20054;-26
2022/04/21 02:18:07;;;;;;;21.92;13.77;;;5.90;82.10;;;;;;5118133;27;20058;-26
2022/04/21 02:20:33;;;;;;;26.23;15.43;;;5.80;87.80;;;;;;5099033;28;20048;-26
2022/04/21 02:22:58;;;;;;;22.02;14.68;;;6.00;34.60;;;;;;5081944;28;20497;-27
2022/04/21 02:25:24;;;;;;;20.67;13.90;;;6.00;13.60;;;;;;5117335;28;20040;-27
2022/04/21 02:27:50;;;;;;;22.85;15.10;;;5.70;20.70;;;;;;5133917;27;20059;-26
2022/04/21 02:30:18;;;;;;;24.50;15.52;;;5.70;20.80;;;;;;5137817;27;20150;-26
2022/04/21 02:32:44;;;;;;;22.00;14.35;;;5.70;22.60;;;;;;5137419;27;20096;-26
2022/04/21 02:35:11;;;;;;;22.02;13.85;;;5.80;24.90;;;;;;5119012;27;20125;-26
2022/04/21 02:37:46;;;;;;;21.40;13.80;;;5.80;5.90;;;;;;5117287;27;20045;-26
2022/04/21 02:40:12;;;;;;;22.45;15.20;;;5.70;86.70;;;;;;5135437;27;20054;-26
2022/04/21 02:42:39;;;;;;;21.63;14.13;;;5.70;70.80;;;;;;5137512;27;20047;-27
2022/04/21 02:45:09;;;;;;;22.73;15.05;;;5.60;65.70;;;;;;5119635;27;20126;-26
2022/04/21 02:47:39;;;;;;;23.92;14.18;;;5.70;81.60;;;;;;5135353;27;20097;-26
2022/04/21 02:50:06;;;;;;;22.05;14.98;;;5.80;66.10;;;;;;5119024;27;20453;-27
2022/04/21 02:52:37;;;;;;;24.45;14.93;;;5.70;10.10;;;;;;5137611;27;20046;-26
2022/04/21 02:57:49;;;;;;;23.30;15.55;;;5.60;9.60;;;;;;5120287;27;20047;-26
2022/04/21 03:00:16;;;;;;;21.85;14.70;;;5.60;37.70;;;;;;5098682;28;20142;-27
2022/04/21 03:02:42;;;;;;;16.92;11.13;;;5.80;86.60;;;;;;5116284;28;20131;-26
2022/04/21 03:05:08;;;;;;;17.27;13.43;;;5.60;53.50;;;;;;5098539;28;20473;-26
2022/04/21 03:07:34;;;;;;;21.25;12.57;;;5.60;60.90;;;;;;5116687;27;20039;-26
2022/04/21 03:10:00;;;;;;;23.40;12.63;;;5.70;42.80;;;;;;5116031;27;20093;-27
2022/04/21 03:12:28;;;;;;;18.95;13.02;;;5.60;17.70;;;;;;5116094;28;20039;-27
2022/04/21 03:14:55;;;;;;;18.17;12.10;;;5.80;1.00;;;;;;5115947;28;20114;-26
2022/04/21 03:17:22;;;;;;;17.50;10.90;;;5.70;1.00;;;;;;5130995;27;20168;-26
2022/04/21 03:19:47;;;;;;;18.45;12.48;;;5.60;14.30;;;;;;5136579;27;20058;-26
2022/04/21 03:25:06;;;;;;;20.30;11.85;;;5.80;1.00;;;;;;5120825;27;20404;-26
2022/04/21 03:27:32;;;;;;;17.20;11.35;;;5.50;36.30;;;;;;5101437;28;20090;-26
2022/04/21 03:29:59;;;;;;;22.65;12.43;;;5.40;1.00;;;;;;5098294;28;20074;-26
2022/04/21 03:32:26;;;;;;;16.65;10.80;;;5.40;1.00;;;;;;5115726;28;20180;-26
2022/04/21 03:34:53;;;;;;;16.47;11.40;;;5.70;1.00;;;;;;5097373;28;20042;-26
2022/04/21 03:37:20;;;;;;;18.60;11.45;;;5.30;1.00;;;;;;5116703;27;20047;-26
2022/04/21 03:39:46;;;;;;;15.13;11.13;;;5.50;1.00;;;;;;5097346;28;20036;-26
2022/04/21 03:42:20;;;;;;;20.58;11.65;;;5.20;1.00;;;;;;5116547;27;20168;-26
2022/04/21 03:44:46;;;;;;;16.20;10.65;;;5.10;1.00;;;;;;5097503;28;20053;-27
2022/04/21 03:47:12;;;;;;;16.77;11.20;;;5.00;1.00;;;;;;5098374;28;20043;-26
2022/04/21 03:49:37;;;;;;;18.92;11.55;;;5.00;1.00;;;;;;5115318;28;20101;-26
2022/04/21 03:52:03;;;;;;;15.53;10.40;;;5.00;1.00;;;;;;5115260;28;20047;-26
2022/04/21 03:54:29;;;;;;;16.80;11.13;;;4.90;1.00;;;;;;5096911;28;20058;-26
2022/04/21 03:56:55;;;;;;;17.77;11.60;;;5.00;1.00;;;;;;5106574;27;20039;-27
2022/04/21 03:59:23;;;;;;;16.63;10.77;;;5.00;1.00;;;;;;5117458;27;20050;-26
2022/04/21 04:01:49;;;;;;;15.52;11.20;;;5.40;1.00;;;;;;5135693;27;20515;-26
2022/04/21 04:04:15;;;;;;;15.93;10.52;;;4.80;1.00;;;;;;5135633;27;20046;-26
2022/04/21 04:12:11;;;;;;;15.63;11.40;;;4.90;24.80;;;;;;5114980;28;20051;-26
2022/04/21 04:14:38;;;;;;;16.27;11.00;;;4.90;93.50;;;;;;5114791;28;20043;-26
2022/04/21 04:17:08;;;;;;;17.30;11.38;;;4.90;87.70;;;;;;5115805;27;20126;-26
2022/04/21 04:19:35;;;;;;;17.13;11.20;;;5.00;94.80;;;;;;5095999;28;20504;-26
2022/04/21 04:22:02;;;;;;;18.53;11.50;;;5.00;99.90;;;;;;5114784;28;20169;-26
2022/04/21 04:24:28;;;;;;;16.83;11.53;;;4.80;99.90;;;;;;5114680;28;20146;-26
2022/04/21 04:26:55;;;;;;;16.73;11.33;;;5.00;99.90;;;;;;5115630;27;20067;-26
2022/04/21 04:29:23;;;;;;;19.07;10.80;;;5.00;99.90;;;;;;5114420;28;20397;-26
2022/04/21 04:31:53;;;;;;;14.60;10.00;;;5.20;99.90;;;;;;5114613;28;20054;-26
2022/04/21 04:34:22;;;;;;;13.87;9.63;;;5.30;99.90;;;;;;5096548;28;20043;-27
2022/04/21 04:36:48;;;;;;;16.13;10.53;;;5.20;99.90;;;;;;5122854;27;20035;-26
2022/04/21 04:39:15;;;;;;;17.30;10.60;;;5.30;99.90;;;;;;5134607;27;20378;-26
2022/04/21 04:44:26;;;;;;;18.50;10.38;;;5.00;99.90;;;;;;5135263;27;20043;-27
2022/04/21 04:46:52;;;;;;;15.07;10.85;;;5.10;99.90;;;;;;5125377;27;20114;-26
2022/04/21 04:49:17;;;;;;;16.15;10.88;;;5.20;99.80;;;;;;5114267;28;20143;-26
2022/04/21 04:51:44;;;;;;;17.58;11.30;;;5.00;99.90;;;;;;5114248;28;20043;-26
2022/04/21 04:54:11;;;;;;;16.67;10.68;;;5.00;96.60;;;;;;5095886;28;20046;-26
2022/04/21 04:56:39;;;;;;;13.43;10.15;;;5.00;99.90;;;;;;5104456;28;20042;-26
2022/04/21 04:59:05;;;;;;;18.48;10.75;;;5.00;99.90;;;;;;5134561;27;20473;-27
2022/04/21 05:01:39;;;;;;;14.73;10.13;;;5.60;99.90;;;;;;5134178;27;20043;-27
2022/04/21 05:04:17;;;;;;;17.80;10.63;;;5.60;99.90;;;;;;5116832;27;20053;-26
2022/04/21 05:06:47;;;;;;;16.60;10.83;;;5.40;99.90;;;;;;5132883;27;20043;-26
2022/04/21 05:09:15;;;;;;;15.03;10.40;;;5.10;99.90;;;;;;5135543;28;20061;-26
2022/04/21 05:11:43;;;;;;;17.38;10.60;;;5.60;99.90;;;;;;5132879;28;20400;-26
2022/04/21 05:14:10;;;;;;;18.92;11.32;;;5.70;99.90;;;;;;5134500;28;20035;-27
2022/04/21 05:16:37;;;;;;;16.77;11.48;;;5.50;99.90;;;;;;5135137;28;20047;-26
2022/04/21 05:19:11;;;;;;;13.73;9.43;;;6.10;99.90;;;;;;5116205;28;20051;-26
2022/04/21 05:21:37;;;;;;;15.30;9.43;;;5.50;99.90;;;;;;5133238;28;20116;-27
2022/04/21 05:24:04;;;;;;;13.40;9.32;;;5.50;99.90;;;;;;5134512;28;20121;-26
2022/04/21 05:26:31;;;;;;;13.85;9.57;;;5.60;99.80;;;;;;5109225;28;20498;-26
2022/04/21 05:28:59;;;;;;;13.53;10.27;;;5.60;96.30;;;;;;5113437;28;20060;-26
2022/04/21 05:31:26;;;;;;;16.13;10.25;;;5.70;91.30;;;;;;5116815;28;20108;-26
2022/04/21 05:33:53;;;;;;;16.83;10.98;;;5.80;68.70;;;;;;5083024;28;20051;-26
2022/04/21 05:36:19;;;;;;;14.50;10.13;;;5.90;58.20;;;;;;5100739;28;20036;-27
2022/04/21 05:38:51;;;;;;;15.50;9.60;;;6.00;44.00;;;;;;5118451;28;20092;-26
2022/04/21 05:41:19;;;;;;;11.88;9.00;;;6.10;46.80;;;;;;5100009;28;20046;-26
2022/04/21 05:43:46;;;;;;;13.75;9.90;;;6.10;9.20;;;;;;5117818;28;20054;-26
2022/04/21 05:46:14;;;;;;;15.18;9.68;;;6.20;1.00;;;;;;5118853;27;20036;-28
2022/04/21 05:48:41;;;;;;;15.82;9.93;;;6.30;1.00;;;;;;5117690;28;20047;-26
2022/04/21 05:51:09;;;;;;;14.60;9.23;;;6.30;1.00;;;;;;5117598;28;20055;-26
2022/04/21 05:53:37;;;;;;;11.60;9.00;;;6.30;1.00;;;;;;5099561;28;20375;-26
2022/04/21 05:56:04;;;;;;;15.82;9.40;;;6.40;1.00;;;;;;5101971;27;20039;-27
2022/04/21 05:58:31;;;;;;;12.13;9.10;;;6.40;1.00;;;;;;5138050;27;20047;-26
2022/04/21 06:00:57;;;;;;;13.55;9.07;;;6.80;1.00;;;;;;5138346;27;20480;-26
2022/04/21 06:03:23;;;;;;;13.85;9.02;;;6.70;1.00;;;;;;5137986;27;20377;-26
2022/04/21 06:05:49;;;;;;;14.35;9.13;;;6.70;1.00;;;;;;5136795;27;20039;-27
2022/04/21 06:08:15;;;;;;;12.35;9.05;;;6.70;1.00;;;;;;5137394;27;20050;-27
2022/04/21 06:10:41;;;;;;;12.52;8.88;;;6.80;1.00;;;;;;5138358;27;20043;-26
2022/04/21 06:13:06;;;;;;;13.68;9.15;;;6.90;1.00;;;;;;5119616;27;20047;-27
2022/04/21 06:15:33;;;;;;;11.10;7.97;;;7.10;1.00;;;;;;5119368;27;20126;-26
2022/04/21 06:18:00;;;;;;;13.73;8.52;;;7.10;1.00;;;;;;5117720;27;20043;-26
2022/04/21 06:20:27;;;;;;;11.68;8.38;;;7.20;1.00;;;;;;5082237;28;20067;-27
2022/04/21 06:22:57;;;;;;;15.73;8.73;;;7.50;1.00;;;;;;5116261;27;20508;-27
2022/04/21 06:25:23;;;;;;;12.02;9.00;;;7.50;1.00;;;;;;5137642;27;20562;-27
2022/04/21 06:27:50;;;;;;;13.23;9.02;;;7.70;99.90;;;;;;5135586;27;20134;-26
2022/04/21 06:30:15;;;;;;;10.45;7.88;;;7.90;99.90;;;;;;5138023;27;20055;-27
2022/04/21 06:32:41;;;;;;;13.75;8.43;;;7.90;99.90;;;;;;5137969;27;20484;-26
2022/04/21 06:35:08;;;;;;;11.77;8.20;;;8.30;99.90;;;;;;5119148;27;20039;-27
2022/04/21 06:37:35;;;;;;;11.02;7.63;;;8.20;99.90;;;;;;5103521;28;20374;-27
2022/04/21 06:40:02;;;;;;;10.82;7.90;;;8.50;99.90;;;;;;5116953;28;20051;-27
2022/04/21 06:42:28;;;;;;;10.40;7.85;;;8.50;99.90;;;;;;5115696;28;20048;-27
2022/04/21 06:50:22;;;;;;;12.60;7.50;;;8.90;99.90;;;;;;5116537;28;20051;-27
2022/04/21 06:52:48;;;;;;;9.93;6.97;;;9.00;99.90;;;;;;5116448;28;20051;-27
2022/04/21 06:55:13;;;;;;;9.60;6.45;;;9.30;99.90;;;;;;5116374;28;20050;-27
2022/04/21 06:57:39;;;;;;;11.25;6.15;;;9.20;99.90;;;;;;5117344;27;20043;-27
2022/04/21 07:00:05;;;;;;;6.85;5.38;;;9.40;99.90;;;;;;5098111;28;20496;-27
2022/04/21 07:02:32;;;;;;;7.13;5.75;;;9.50;99.90;;;;;;5116241;28;20044;-28
2022/04/21 07:05:09;;;;;;;10.63;5.30;;;9.80;99.90;;;;;;5098821;28;20047;-27
2022/04/21 07:07:36;;;;;;;7.65;5.30;;;9.70;99.90;;;;;;5117301;27;20082;-28
2022/04/21 07:10:03;;;;;;;9.38;6.20;;;9.80;99.90;;;;;;5098227;28;20111;-27
2022/04/21 07:12:33;;;;;;;7.80;5.65;;;9.90;99.90;;;;;;5097597;28;20115;-27
2022/04/21 07:15:00;;;;;;;10.27;5.88;;;10.00;99.90;;;;;;5116006;28;20040;-28
2022/04/21 07:17:26;;;;;;;6.97;5.05;;;10.10;99.90;;;;;;5112371;27;20062;-27
2022/04/21 07:19:52;;;;;;;6.75;5.00;;;10.30;99.90;;;;;;5111819;27;20400;-27
2022/04/21 07:22:25;;;;;;;9.07;5.50;;;10.40;99.90;;;;;;5118344;27;20095;-27
2022/04/21 07:24:54;;;;;;;8.07;5.35;;;10.50;99.90;;;;;;5134327;27;20405;-27
2022/04/21 07:27:21;;;;;;;8.27;5.85;;;10.60;55.30;;;;;;5134402;27;20054;-27
2022/04/21 07:29:48;;;;;;;8.32;5.72;;;10.70;70.00;;;;;;5136931;27;20055;-27
2022/04/21 07:32:13;;;;;;;7.45;5.25;;;10.80;22.20;;;;;;5135967;27;20520;-27
2022/04/21 07:34:40;;;;;;;9.52;5.20;;;10.90;12.20;;;;;;5134305;27;20035;-27
2022/04/21 07:37:07;;;;;;;8.23;4.95;;;11.00;11.60;;;;;;5134369;27;20050;-27
2022/04/21 07:39:32;;;;;;;7.60;4.38;;;11.10;8.90;;;;;;5136023;27;20047;-27
2022/04/21 07:41:59;;;;;;;5.60;4.50;;;11.30;1.00;;;;;;5136700;27;20096;-27
2022/04/21 07:44:28;;;;;;;7.40;4.63;;;11.40;1.00;;;;;;5134274;27;20039;-27
2022/04/21 07:46:55;;;;;;;7.07;4.85;;;11.50;1.00;;;;;;5118279;27;20105;-27
2022/04/21 07:54:50;;;;;;;6.28;3.05;;;11.90;1.00;;;;;;5133866;27;20043;-27
2022/04/21 07:57:16;;;;;;;6.70;2.75;;;12.00;1.00;;;;;;5135738;27;20126;-27
2022/04/21 07:59:42;;;;;;;2.63;1.98;;;12.20;1.00;;;;;;5135979;27;20047;-28
2022/04/21 08:02:08;;;;;;;5.45;2.50;;;12.20;99.90;;;;;;5109234;28;20058;-27
2022/04/21 08:04:37;;;;;;;3.05;2.33;;;12.20;99.90;;;;;;5115094;28;20040;-27
2022/04/21 08:07:04;;;;;;;2.83;2.05;;;12.20;99.90;;;;;;5115042;28;20050;-27
2022/04/21 08:09:30;;;;;;;6.85;2.28;;;12.30;99.90;;;;;;5097535;28;20392;-30
2022/04/21 08:11:56;;;;;;;2.45;2.00;;;12.50;99.90;;;;;;5098813;28;20131;-29
2022/04/21 08:14:24;;;;;;;4.00;1.75;;;12.60;99.90;;;;;;5114815;28;20055;-29
2022/04/21 08:16:53;;;;;;;3.42;2.05;;;12.70;99.90;;;;;;5122683;27;20051;-29
2022/04/21 08:19:20;;;;;;;4.57;2.78;;;12.60;99.90;;;;;;5100863;27;20488;-29
2022/04/21 08:21:47;;;;;;;5.07;2.67;;;12.70;99.90;;;;;;5100084;27;20047;-29
2022/04/21 08:32:34;;;;;;;4.70;3.10;;;13.00;99.90;;;;;;5134005;27;20091;-29
2022/04/21 08:35:01;;;;;;;6.60;2.85;;;13.10;99.90;;;;;;5096408;28;20426;-29
2022/04/21 08:37:27;;;;;;;6.13;3.20;;;13.20;99.90;;;;;;5114529;28;20066;-29
2022/04/21 08:39:54;;;;;;;4.72;3.47;;;13.30;99.90;;;;;;5096272;28;20517;-29
2022/04/21 08:42:21;;;;;;;5.88;3.17;;;13.40;99.90;;;;;;5114456;28;20065;-29
2022/04/21 08:44:49;;;;;;;7.20;2.92;;;13.50;99.90;;;;;;5096274;28;20105;-29
2022/04/21 08:47:18;;;;;;;7.28;3.13;;;13.50;99.90;;;;;;5115243;28;20134;-30
2022/04/21 08:49:47;;;;;;;7.72;3.75;;;13.60;99.90;;;;;;5114252;28;20101;-29
2022/04/21 08:52:14;;;;;;;3.38;2.20;;;13.60;99.90;;;;;;5114322;28;20090;-29
2022/04/21 08:54:41;;;;;;;5.25;2.90;;;13.70;99.90;;;;;;5114195;28;20043;-29
2022/04/21 08:57:09;;;;;;;3.35;2.55;;;13.80;99.90;;;;;;5114179;28;20052;-30
2022/04/21 08:59:34;;;;;;;5.13;2.53;;;13.90;99.90;;;;;;5114226;28;20043;-29
2022/04/21 09:02:00;;;;;;;5.00;2.60;;;14.00;99.90;;;;;;5097077;28;20461;-29
2022/04/21 09:04:28;;;;;;;4.38;2.30;;;14.20;99.90;;;;;;5113803;28;20047;-29
2022/04/21 09:06:54;;;;;;;3.85;2.42;;;15.00;99.90;;;;;;5114075;28;20176;-30
2022/04/21 09:09:21;;;;;;;3.30;1.80;;;16.00;96.30;;;;;;5114063;28;20079;-31
2022/04/21 09:11:53;;;;;;;2.88;2.03;;;16.70;15.60;;;;;;5114123;28;20055;-29
2022/04/21 09:14:20;;;;;;;4.82;2.17;;;17.00;1.00;;;;;;5096576;28;20594;-30
2022/04/21 09:16:47;;;;;;;4.65;2.47;;;17.10;1.00;;;;;;5113288;28;20087;-31
2022/04/21 09:19:14;;;;;;;3.42;2.08;;;17.60;1.00;;;;;;5117425;28;20054;-30
2022/04/21 09:21:41;;;;;;;2.83;1.77;;;17.80;1.00;;;;;;5123457;28;20047;-30
2022/04/21 09:24:24;;;;;;;3.08;1.70;;;18.00;1.00;;;;;;5133178;28;20415;-30
2022/04/21 09:26:51;;;;;;;4.22;2.38;;;18.30;1.00;;;;;;5117507;28;20481;-30
2022/04/21 09:29:28;;;;;;;4.45;2.17;;;18.20;1.00;;;;;;5101730;28;20058;-29
2022/04/21 09:31:58;;;;;;;3.30;1.85;;;18.10;1.00;;;;;;5133201;28;20055;-30
2022/04/21 09:34:25;;;;;;;2.60;2.20;;;18.00;1.00;;;;;;5102856;28;20039;-30
2022/04/21 09:36:53;;;;;;;3.72;2.30;;;17.50;1.00;;;;;;5114443;28;20039;-30
2022/04/21 09:39:19;;;;;;;3.28;2.05;;;17.90;1.00;;;;;;5107094;28;20112;-29
2022/04/21 09:41:51;;;;;;;4.72;1.77;;;18.00;1.00;;;;;;5122917;28;20074;-29
2022/04/21 09:47:01;;;;;;;3.42;1.80;;;18.70;99.90;;;;;;5122678;28;20079;-30
2022/04/21 09:49:44;;;;;;;9.57;2.33;;;18.40;99.90;;;;;;5116960;28;20987;-31
2022/04/21 09:52:11;;;;;;;5.72;2.35;;;18.50;99.90;;;;;;5129119;28;20047;-30
2022/04/21 09:54:39;;;;;;;3.38;2.05;;;18.60;99.90;;;;;;5117270;28;20507;-30
2022/04/21 09:57:05;;;;;;;6.75;2.50;;;18.90;99.90;;;;;;5106627;28;20118;-29
2022/04/21 09:59:35;;;;;;;4.20;2.30;;;19.20;99.90;;;;;;5104252;28;20397;-29
2022/04/21 10:02:04;;;;;;;3.47;2.33;;;19.30;99.90;;;;;;5130164;27;20133;-30
2022/04/21 10:04:30;;;;;;;2.42;1.92;;;19.10;99.90;;;;;;5128009;27;20028;-30
2022/04/21 10:06:57;;;;;;;4.43;2.08;;;19.00;99.90;;;;;;5113825;28;20052;-30
2022/04/21 10:09:23;;;;;;;4.82;2.17;;;17.90;99.90;;;;;;5129362;28;20529;-30
2022/04/21 10:11:52;;;;;;;7.18;2.17;;;17.70;99.90;;;;;;5126868;27;20048;-29
2022/04/21 10:14:18;;;;;;;4.50;2.05;;;18.00;99.90;;;;;;5127411;28;20053;-29
2022/04/21 10:16:44;;;;;;;4.95;2.10;;;18.30;99.90;;;;;;5126436;27;20114;-30
2022/04/21 10:19:16;;;;;;;3.65;2.03;;;18.70;99.90;;;;;;5116049;27;20537;-30
2022/04/21 10:21:49;;;;;;;1.90;1.70;;;19.00;99.90;;;;;;5125552;27;20035;-30
2022/04/21 10:24:23;;;;;;;7.13;2.28;;;19.70;99.90;;;;;;5113683;27;20479;-30
2022/04/21 10:26:49;;;;;;;4.15;2.63;;;19.60;99.90;;;;;;5115150;27;20039;-29
2022/04/21 10:29:23;;;;;;;4.80;2.20;;;19.40;99.90;;;;;;5123052;27;20126;-31
2022/04/21 10:31:51;;;;;;;2.63;2.28;;;19.70;99.90;;;;;;5123303;27;20043;-30
2022/04/21 10:34:41;;;;;;;5.28;4.28;;;19.20;99.90;;;;;;5107562;27;20039;-30
2022/04/21 10:37:13;;;;;;;8.25;2.72;;;19.10;99.90;;;;;;5113043;27;20082;-30
2022/04/21 10:39:40;;;;;;;3.92;2.22;;;18.70;99.90;;;;;;5107750;28;20052;-30
2022/04/21 10:42:12;;;;;;;4.78;2.13;;;19.20;99.90;;;;;;5116393;27;20044;-30
2022/04/21 10:44:44;;;;;;;3.10;2.25;;;19.60;99.90;;;;;;5116164;27;20548;-30
2022/04/21 10:47:33;;;;;;;2.22;1.42;;;19.70;99.90;;;;;;5119106;27;20050;-30
2022/04/21 10:50:19;;;;;;;4.03;1.70;;;19.20;99.90;;;;;;5118618;27;20112;-30
2022/04/21 10:58:34;;;;;;;4.07;1.63;;;19.40;99.90;;;;;;5130028;27;20055;-29
2022/04/21 11:01:07;;;;;;;4.57;1.38;;;19.90;99.90;;;;;;5117748;27;20048;-29
2022/04/21 11:03:33;;;;;;;1.52;1.10;;;20.10;99.90;;;;;;5131276;27;20043;-30
2022/04/21 11:06:15;;;;;;;2.20;1.42;;;20.30;99.90;;;;;;5134700;27;20066;-30
2022/04/21 11:08:42;;;;;;;4.78;1.67;;;19.30;99.90;;;;;;5122215;27;20103;-30
2022/04/21 11:11:09;;;;;;;2.00;1.10;;;18.90;99.90;;;;;;5118578;27;20088;-30
2022/04/21 11:13:50;;;;;;;2.05;1.30;;;18.60;99.90;;;;;;5117600;27;20083;-30
2022/04/21 11:16:41;;;;;;;3.80;1.40;;;19.00;99.90;;;;;;5118294;27;20074;-30
2022/04/21 11:19:31;;;;;;;3.17;1.58;;;19.00;99.90;;;;;;5130879;27;20075;-30
2022/04/21 11:22:01;;;;;;;3.47;1.50;;;18.90;99.90;;;;;;5082851;27;20528;-30
2022/04/21 11:24:47;;;;;;;1.77;1.50;;;18.90;99.90;;;;;;5121619;27;20046;-29
2022/04/21 11:27:14;;;;;;;5.72;1.83;;;19.40;99.90;;;;;;5108914;27;20043;-30
2022/04/21 11:29:40;;;;;;;1.95;1.30;;;19.60;99.90;;;;;;5113295;27;20055;-30
2022/04/21 11:32:06;;;;;;;3.90;1.60;;;19.50;99.90;;;;;;5099742;27;20413;-30
2022/04/21 11:34:33;;;;;;;6.32;2.17;;;19.30;99.90;;;;;;5117879;27;20042;-30
2022/04/21 11:37:01;;;;;;;6.10;4.80;;;18.90;99.90;;;;;;5103591;27;20492;-31
2022/04/21 11:39:27;;;;;;;4.82;2.40;;;18.90;99.90;;;;;;5117769;27;20055;-29
2022/04/21 11:41:53;;;;;;;5.57;1.98;;;19.90;99.90;;;;;;5119672;27;20047;-30
2022/04/21 11:44:26;;;;;;;3.88;2.00;;;20.70;99.90;;;;;;5095949;27;20036;-31
2022/04/21 11:46:53;;;;;;;5.38;1.83;;;21.00;99.90;;;;;;5123168;27;20055;-30
2022/04/21 11:49:19;;;;;;;3.72;2.40;;;20.10;99.90;;;;;;5115536;27;20051;-30
2022/04/21 11:51:51;;;;;;;4.05;1.98;;;19.60;99.90;;;;;;5113516;27;21773;-32
2022/04/21 11:54:17;;;;;;;4.97;2.33;;;18.70;99.90;;;;;;5101824;27;20039;-30
2022/04/21 11:56:50;;;;;;;4.57;2.90;;;18.50;99.90;;;;;;5100101;27;20051;-30
2022/04/21 11:59:15;;;;;;;4.20;2.13;;;18.60;99.90;;;;;;5112731;27;20063;-30
2022/04/21 12:07:17;;;;;;;4.35;2.80;;;18.90;99.90;;;;;;5115007;27;20054;-30
2022/04/21 12:09:46;;;;;;;4.13;2.75;;;18.60;99.90;;;;;;5116102;27;20035;-30
2022/04/21 12:12:13;;;;;;;3.30;2.45;;;18.60;99.90;;;;;;5087076;27;20070;-30
2022/04/21 12:14:43;;;;;;;4.70;2.85;;;18.60;99.90;;;;;;5121029;27;20036;-32
2022/04/21 12:17:10;;;;;;;4.07;2.35;;;18.30;99.90;;;;;;5114292;27;20054;-30
2022/04/21 12:19:46;;;;;;;3.20;2.00;;;18.40;99.90;;;;;;5090191;27;20055;-31
2022/04/21 12:22:16;;;;;;;6.20;2.65;;;18.80;99.90;;;;;;5112784;27;20040;-30
2022/04/21 12:24:48;;;;;;;20.25;4.03;;;18.80;99.90;;;;;;5113888;27;20481;-31
2022/04/21 12:27:19;;;;;;;3.47;1.83;;;18.90;99.90;;;;;;5110319;27;20050;-30
2022/04/21 12:29:51;;;;;;;5.35;2.85;;;18.40;99.90;;;;;;5111566;27;20043;-30
2022/04/21 12:32:25;;;;;;;3.83;2.65;;;17.90;99.90;;;;;;5117220;27;20051;-30
2022/04/21 12:34:55;;;;;;;3.22;2.47;;;17.60;99.90;;;;;;5114664;27;20035;-31
2022/04/21 12:37:29;;;;;;;5.00;2.47;;;17.60;99.90;;;;;;5096061;28;20050;-29
2022/04/21 12:40:00;;;;;;;3.95;2.00;;;18.10;99.90;;;;;;5113838;27;20050;-30
2022/04/21 12:42:29;;;;;;;2.92;2.38;;;18.00;99.90;;;;;;5114640;27;20051;-30
2022/04/21 12:44:55;;;;;;;5.75;2.33;;;17.90;99.90;;;;;;5110679;27;20069;-30
2022/04/21 12:47:22;;;;;;;3.95;3.28;;;18.10;99.90;;;;;;5094768;28;20378;-31
2022/04/21 12:50:03;;;;;;;3.90;2.92;;;17.70;99.90;;;;;;5124999;27;20047;-30
2022/04/21 12:52:33;;;;;;;3.30;2.45;;;17.70;99.90;;;;;;5121109;27;20046;-30
2022/04/21 12:55:00;;;;;;;9.32;3.45;;;17.80;99.90;;;;;;5130440;27;20043;-30
2022/04/21 12:57:27;;;;;;;4.13;2.88;;;17.70;99.90;;;;;;5116800;27;20031;-30
2022/04/21 12:59:54;;;;;;;5.97;3.00;;;18.00;99.90;;;;;;5096917;27;20050;-30
2022/04/21 13:02:20;;;;;;;5.68;3.13;;;18.40;99.90;;;;;;5111194;27;20066;-30
2022/04/21 13:04:47;;;;;;;3.47;2.75;;;18.40;99.90;;;;;;5094843;28;20143;-30
2022/04/21 13:07:13;;;;;;;2.92;2.22;;;18.50;99.90;;;;;;5115730;27;20590;-30
2022/04/21 13:09:38;;;;;;;6.10;2.30;;;18.40;99.90;;;;;;5113763;28;20118;-30
2022/04/21 13:12:05;;;;;;;7.63;2.60;;;18.20;99.90;;;;;;5098112;28;20405;-30
2022/04/21 13:14:30;;;;;;;4.47;2.83;;;17.80;99.90;;;;;;5111100;28;20297;-31
2022/04/21 13:16:57;;;;;;;3.75;2.58;;;17.50;99.90;;;;;;5091514;28;20397;-30
2022/04/21 13:19:23;;;;;;;2.78;2.30;;;17.40;99.90;;;;;;5093683;28;20035;-30
2022/04/21 13:21:58;;;;;;;4.15;2.47;;;17.60;99.90;;;;;;5114563;28;20503;-31
2022/04/21 13:24:31;;;;;;;5.90;2.33;;;17.50;99.90;;;;;;5113718;28;20058;-30
2022/04/21 13:26:58;;;;;;;3.13;2.47;;;17.50;99.90;;;;;;5112570;28;20114;-30
2022/04/21 13:29:27;;;;;;;4.20;2.40;;;17.50;99.90;;;;;;5115434;28;20427;-30
2022/04/21 13:34:36;;;;;;;3.65;2.60;;;17.80;99.90;;;;;;5112263;28;20404;-30
2022/04/21 13:37:04;;;;;;;3.70;2.33;;;17.30;99.90;;;;;;5111167;28;20043;-31
2022/04/21 13:39:31;;;;;;;5.28;2.78;;;16.90;99.90;;;;;;5111213;28;20067;-31
2022/04/21 13:41:57;;;;;;;5.22;3.20;;;16.80;99.90;;;;;;5112505;28;20067;-31
2022/04/21 13:44:23;;;;;;;4.28;2.38;;;16.80;99.90;;;;;;5115435;28;20070;-30
2022/04/21 13:46:49;;;;;;;5.15;2.88;;;16.50;99.90;;;;;;5095809;28;20082;-30